NCAR-RAP Real-Time Weather Data

Output produced by METARs form (10 April 2020  12:43 UTC)
found at http://weather.rap.ucar.edu/surface/
 
KACT 101151Z 03009KT 10SM CLR 13/07 A3005 RMK AO2 SLP173 70017 T01330067 10178 20133 51018
KACT 101051Z AUTO 02008KT 10SM CLR 13/08 A3004 RMK AO2 SLP169 T01330078
KACT 100951Z AUTO 03007KT 10SM CLR 14/08 A3002 RMK AO2 SLP160 T01390083
KACT 100851Z AUTO 02010KT 10SM CLR 15/11 A3000 RMK AO2 SLP155 T01500106 53008
KACT 100751Z AUTO 36008KT 10SM CLR 17/15 A2999 RMK AO2 SLP150 T01670150
KACT 100651Z AUTO 01008KT 10SM CLR 17/15 A2998 RMK AO2 SLP147 T01720150
KACT 100551Z AUTO 01007KT 9SM CLR 18/16 A2998 RMK AO2 SLP145 60000 T01780161 10206 20178 402780178 51012
KACT 100451Z AUTO 01004KT 10SM FEW075 FEW110 18/16 A2997 RMK AO2 SLP144 T01830161
KACT 100351Z 00000KT 9SM CLR 19/17 A2997 RMK AO2 SLP144 T01890172
KACT 100251Z 04004KT 8SM CLR 19/17 A2994 RMK AO2 SLP133 60000 T01940172 53027
KACT 100151Z 32007KT 8SM BKN120 19/18 A2992 RMK AO2 PRESRR SLP125 T01940178
KACT 100051Z 02004KT 8SM FEW075 FEW110 20/18 A2985 RMK AO2 RAB13E37 SLP101 P0000 T02000178
KACT 092351Z 01006KT 10SM BKN120 21/17 A2986 RMK AO2 PRESRR SLP105 60017 T02060172 10278 20189 56031
KACT 092251Z 01010KT 10SM FEW080 FEW095 BKN120 21/18 A2986 RMK AO2 RAE34 SLP106 P0000 T02060178
KACT 092151Z 02009KT 10SM -RA FEW035 SCT085 OVC110 19/17 A2988 RMK AO2 SLP111 P0009 T01940167
KACT 092051Z 32008KT 5SM RA FEW080 OVC100 20/17 A2995 RMK AO2 LTG DSNT E-S TSE1955 SLP137 P0008 60008 T02000172 50035
KACT 092048Z 32011KT 5SM -RA FEW080 OVC100 20/17 A2996 RMK AO2 LTG DSNT E-S TSE1955 P0008
KACT 092033Z 30011KT 5SM VCTS RA OVC100 21/18 A2994 RMK AO2 LTG DSNT ALQDS TSE1955 P0004 T02060178
KACT 092022Z AUTO 30009KT 8SM -RA OVC100 21/18 A2994 RMK AO2 LTG DSNT ALQDS TSE1955 PRESRR P0002 T02060178
KACT 092001Z AUTO 29010KT 8SM VCTS -RA OVC100 22/17 A2992 RMK AO2 LTG DSNT ALQDS TSE1955 PRESRR P0001 T02170172
KACT 091951Z 30009KT 7SM -TSRA OVC100 22/18 A2990 RMK AO2 LTG DSNT ALQDS RAB20 TSB32 SLP118 P0000 T02220178
KACT 091932Z 32011KT 10SM -TSRA FEW085 BKN110 23/18 A2989 RMK AO2 LTG DSNT ALQDS RAB20 TSB32 P0000 T02280178
KACT 091851Z 01007KT 10SM CLR 24/18 A2985 RMK AO2 SLP100 T02440183
KACT 091751Z 00000KT 10SM CLR 27/17 A2987 RMK AO2 SLP106 T02720167 10272 20206 58007
KACT 091651Z 34004KT 10SM CLR 26/17 A2991 RMK AO2 SLP120 T02610172
KACT 091551Z 00000KT 10SM CLR 23/16 A2990 RMK AO2 SLP117 T02330161
KACT 091451Z 34004KT 10SM CLR 22/16 A2989 RMK AO2 SLP115 T02170161 51016
KACT 091351Z 31006KT 10SM CLR 21/16 A2989 RMK AO2 SLP115 T02060156